Time;durP1;ratioP1;P1;durP2;ratioP2;P2;SDS_P1;SDS_P2;PMS_P1;PMS_P2;Temp;Humidity;BMP_temperature;BMP_pressure;BME280_temperature;BME280_humidity;BME280_pressure;Samples;Min_cycle;Max_cycle;Signal;HPM_P1;HPM_P2
2021/04/15 00:01:46;;;;;;;10.05;7.10;;;4.10;99.90;;;;;;5116495;28;20223;-71
2021/04/15 00:04:14;;;;;;;11.88;8.18;;;4.00;99.90;;;;;;5116766;28;20292;-71
2021/04/15 00:06:40;;;;;;;9.80;6.80;;;4.00;99.90;;;;;;5116478;28;20211;-72
2021/04/15 00:09:09;;;;;;;10.20;7.13;;;3.90;99.90;;;;;;5116339;28;20198;-72
2021/04/15 00:11:37;;;;;;;11.82;8.00;;;3.90;99.90;;;;;;5116066;28;20307;-71
2021/04/15 00:14:04;;;;;;;12.50;7.35;;;3.80;99.90;;;;;;5116490;28;20292;-71
2021/04/15 00:16:31;;;;;;;11.80;7.07;;;3.80;99.90;;;;;;5116778;28;20284;-71
2021/04/15 00:18:58;;;;;;;8.48;6.75;;;3.70;99.90;;;;;;5116436;28;20803;-71
2021/04/15 00:21:27;;;;;;;12.45;7.40;;;3.60;99.90;;;;;;5115855;28;20217;-71
2021/04/15 00:23:54;;;;;;;9.70;7.10;;;3.50;99.90;;;;;;5116046;28;20764;-71
2021/04/15 00:26:22;;;;;;;13.98;7.95;;;3.50;99.90;;;;;;5116012;28;20226;-71
2021/04/15 00:28:49;;;;;;;11.07;6.90;;;3.50;99.90;;;;;;5116105;28;20205;-71
2021/04/15 00:31:15;;;;;;;11.48;7.78;;;3.50;99.90;;;;;;5115507;28;20709;-72
2021/04/15 00:33:42;;;;;;;10.23;6.40;;;3.50;99.90;;;;;;5115748;28;20212;-73
2021/04/15 00:36:09;;;;;;;11.75;7.30;;;3.40;99.90;;;;;;5115702;28;20317;-72
2021/04/15 00:38:36;;;;;;;10.85;7.63;;;3.30;99.90;;;;;;5115584;28;20636;-72
2021/04/15 00:41:04;;;;;;;11.05;7.85;;;3.30;99.90;;;;;;5115405;27;20229;-73
2021/04/15 00:43:34;;;;;;;11.23;7.97;;;3.30;99.90;;;;;;5115717;28;20205;-72
2021/04/15 00:46:13;;;;;;;11.00;7.65;;;3.30;99.90;;;;;;5115623;28;20197;-72
2021/04/15 00:48:42;;;;;;;12.10;7.95;;;3.30;99.90;;;;;;5115596;28;20203;-71
2021/04/15 00:51:14;;;;;;;13.63;7.80;;;3.30;99.90;;;;;;5115647;28;20221;-72
2021/04/15 00:53:47;;;;;;;12.45;7.03;;;3.40;99.90;;;;;;5115630;28;20292;-72
2021/04/15 00:56:13;;;;;;;12.70;8.07;;;3.40;99.90;;;;;;5115336;28;20225;-72
2021/04/15 00:58:41;;;;;;;13.18;7.85;;;3.30;99.90;;;;;;5114823;28;20725;-72
2021/04/15 01:01:08;;;;;;;13.38;8.10;;;3.40;99.90;;;;;;5115267;28;20225;-70
2021/04/15 01:03:36;;;;;;;10.55;7.85;;;3.50;99.90;;;;;;5115473;28;20368;-71
2021/04/15 01:06:05;;;;;;;13.13;7.82;;;3.50;99.90;;;;;;5115497;28;20237;-71
2021/04/15 01:08:32;;;;;;;12.40;7.20;;;3.50;99.90;;;;;;5115638;28;20205;-71
2021/04/15 01:11:08;;;;;;;12.02;8.18;;;3.50;99.90;;;;;;5114978;28;20227;-71
2021/04/15 01:13:50;;;;;;;12.43;7.95;;;3.50;99.90;;;;;;5115286;28;20346;-71
2021/04/15 01:16:27;;;;;;;11.35;8.25;;;3.40;99.90;;;;;;5115479;28;20217;-72
2021/04/15 01:19:05;;;;;;;13.63;8.32;;;3.30;99.90;;;;;;5115457;28;20200;-73
2021/04/15 01:22:06;;;;;;;11.15;8.20;;;3.20;99.90;;;;;;5115292;28;20316;-71
2021/04/15 01:24:39;;;;;;;12.73;8.38;;;3.20;99.90;;;;;;5114954;28;20197;-69
2021/04/15 01:27:25;;;;;;;13.30;7.78;;;3.20;99.90;;;;;;5114762;28;20201;-71
2021/04/15 01:29:58;;;;;;;12.50;8.00;;;3.30;99.90;;;;;;5114848;27;20205;-71
2021/04/15 01:32:30;;;;;;;15.70;8.32;;;3.40;99.90;;;;;;5114297;28;20716;-69
2021/04/15 01:35:00;;;;;;;12.10;7.60;;;3.40;99.90;;;;;;5114548;28;20228;-68
2021/04/15 01:37:33;;;;;;;11.98;7.30;;;3.40;99.90;;;;;;5114533;28;20201;-71
2021/04/15 01:40:09;;;;;;;11.82;7.93;;;3.30;99.90;;;;;;5114224;28;20209;-69
2021/04/15 01:42:43;;;;;;;11.20;7.93;;;3.30;99.90;;;;;;5114466;28;20204;-69
2021/04/15 01:45:12;;;;;;;11.27;7.70;;;3.30;99.90;;;;;;5114489;28;20194;-69
2021/04/15 01:47:43;;;;;;;11.43;7.90;;;3.40;99.90;;;;;;5114034;28;20250;-68
2021/04/15 01:50:15;;;;;;;13.85;7.82;;;3.40;99.90;;;;;;5114101;28;20291;-70
2021/04/15 01:52:44;;;;;;;12.25;8.35;;;3.40;99.90;;;;;;5114073;28;20724;-69
2021/04/15 01:55:17;;;;;;;15.60;9.07;;;3.30;99.90;;;;;;5113822;28;20221;-69
2021/04/15 01:57:49;;;;;;;11.85;8.02;;;3.30;99.90;;;;;;5114103;28;20208;-69
2021/04/15 02:00:20;;;;;;;14.00;8.85;;;3.40;99.90;;;;;;5113609;28;20205;-73
2021/04/15 02:02:50;;;;;;;12.85;8.13;;;3.20;99.90;;;;;;5113893;28;20740;-74
2021/04/15 02:05:22;;;;;;;15.65;9.15;;;3.20;99.90;;;;;;5114085;28;20223;-75
2021/04/15 02:07:53;;;;;;;13.45;9.20;;;3.20;99.90;;;;;;5113849;28;20216;-73
2021/04/15 02:10:20;;;;;;;16.23;8.90;;;3.10;99.90;;;;;;5113403;28;20198;-73
2021/04/15 02:12:52;;;;;;;12.82;8.82;;;3.10;99.90;;;;;;5113712;28;20197;-74
2021/04/15 02:15:25;;;;;;;12.20;8.45;;;3.10;99.90;;;;;;5113862;28;20650;-73
2021/04/15 02:17:55;;;;;;;18.77;9.10;;;3.00;99.90;;;;;;5113614;28;20263;-73
2021/04/15 02:20:24;;;;;;;14.23;9.85;;;3.00;99.90;;;;;;5113461;27;20790;-71
2021/04/15 02:22:58;;;;;;;13.57;8.40;;;3.00;99.90;;;;;;5115534;28;20201;-72
2021/04/15 02:25:29;;;;;;;12.70;8.38;;;3.00;99.90;;;;;;5114655;28;20252;-72
2021/04/15 02:28:03;;;;;;;13.30;8.32;;;3.00;99.90;;;;;;5115023;28;20606;-71
2021/04/15 02:30:34;;;;;;;14.38;7.95;;;3.10;99.90;;;;;;5114331;27;20221;-72
2021/04/15 02:33:06;;;;;;;12.80;7.68;;;3.20;99.90;;;;;;5115472;28;20276;-72
2021/04/15 02:35:39;;;;;;;11.02;7.13;;;3.20;99.90;;;;;;5114747;28;20221;-72
2021/04/15 02:38:06;;;;;;;12.88;8.38;;;3.20;99.90;;;;;;5114406;28;20222;-71
2021/04/15 02:40:39;;;;;;;11.55;7.50;;;3.30;99.90;;;;;;5114611;28;20252;-71
2021/04/15 02:43:11;;;;;;;15.68;8.57;;;3.30;99.90;;;;;;5114981;28;20186;-72
2021/04/15 02:45:43;;;;;;;21.15;9.70;;;3.10;99.90;;;;;;5114561;28;20202;-71
2021/04/15 02:48:16;;;;;;;13.80;8.48;;;3.20;99.90;;;;;;5114344;28;20250;-72
2021/04/15 02:50:44;;;;;;;13.55;7.97;;;3.20;99.90;;;;;;5114434;28;20253;-71
2021/04/15 02:53:14;;;;;;;14.25;8.10;;;3.20;99.90;;;;;;5114300;28;20284;-72
2021/04/15 02:55:51;;;;;;;11.38;7.97;;;3.20;99.90;;;;;;5113825;28;20217;-72
2021/04/15 02:58:24;;;;;;;14.52;8.90;;;3.10;99.90;;;;;;5114632;28;20201;-72
2021/04/15 03:00:54;;;;;;;13.80;8.27;;;3.00;99.90;;;;;;5114161;28;20218;-72
2021/04/15 03:03:24;;;;;;;16.27;9.60;;;3.10;99.90;;;;;;5114545;28;20293;-72
2021/04/15 03:05:57;;;;;;;14.60;9.35;;;3.00;99.90;;;;;;5114159;28;20197;-72
2021/04/15 03:08:26;;;;;;;14.77;8.55;;;3.00;99.90;;;;;;5114179;28;20185;-72
2021/04/15 03:10:55;;;;;;;11.25;8.10;;;3.00;99.90;;;;;;5114267;28;20221;-71
2021/04/15 03:13:24;;;;;;;13.82;8.55;;;2.90;99.90;;;;;;5114025;28;20288;-72
2021/04/15 03:15:54;;;;;;;12.88;8.00;;;3.00;99.90;;;;;;5113870;28;20233;-71
2021/04/15 03:18:26;;;;;;;15.65;9.15;;;3.00;99.90;;;;;;5114332;28;20292;-72
2021/04/15 03:21:00;;;;;;;15.60;8.65;;;3.00;99.90;;;;;;5113842;28;20382;-72
2021/04/15 03:23:33;;;;;;;14.05;7.97;;;3.00;99.90;;;;;;5116697;28;20240;-72
2021/04/15 03:26:05;;;;;;;15.18;8.80;;;3.00;99.90;;;;;;5118326;28;20278;-71
2021/04/15 03:28:36;;;;;;;13.07;8.70;;;3.00;99.90;;;;;;5118317;28;20197;-72
2021/04/15 03:31:11;;;;;;;13.90;7.80;;;2.90;99.90;;;;;;5118443;28;20225;-72
2021/04/15 03:33:40;;;;;;;13.05;8.65;;;3.00;99.90;;;;;;5118171;28;20234;-72
2021/04/15 03:36:13;;;;;;;12.65;7.93;;;2.90;99.90;;;;;;5117821;28;20244;-72
2021/04/15 03:38:46;;;;;;;12.25;8.48;;;2.90;99.90;;;;;;5118035;28;20276;-72
2021/04/15 03:41:16;;;;;;;16.75;8.60;;;2.80;99.90;;;;;;5117585;28;20224;-72
2021/04/15 03:43:49;;;;;;;10.95;7.57;;;2.90;99.90;;;;;;5118510;28;20229;-72
2021/04/15 03:46:23;;;;;;;12.25;7.30;;;2.60;99.90;;;;;;5117787;28;20254;-72
2021/04/15 03:48:53;;;;;;;14.48;8.90;;;2.60;99.90;;;;;;5117733;28;20660;-72
2021/04/15 03:51:23;;;;;;;13.95;9.13;;;2.70;99.90;;;;;;5118003;28;20294;-71
2021/04/15 03:53:52;;;;;;;14.73;8.52;;;2.70;99.90;;;;;;5117920;28;20211;-72
2021/04/15 03:56:29;;;;;;;13.57;8.15;;;2.70;99.90;;;;;;5117110;28;20225;-71
2021/04/15 03:59:00;;;;;;;16.85;8.80;;;2.70;99.90;;;;;;5117363;28;20189;-71
2021/04/15 04:01:31;;;;;;;12.40;8.20;;;2.70;99.90;;;;;;5117467;28;20331;-71
2021/04/15 04:04:05;;;;;;;14.27;9.15;;;2.80;99.90;;;;;;5117730;28;20205;-72
2021/04/15 04:06:35;;;;;;;16.50;8.90;;;2.80;99.90;;;;;;5117397;28;20272;-71
2021/04/15 04:09:06;;;;;;;12.82;8.90;;;2.80;99.90;;;;;;5117796;27;20297;-72
2021/04/15 04:11:34;;;;;;;11.93;7.30;;;2.90;99.90;;;;;;5117441;28;20331;-71
2021/04/15 04:14:04;;;;;;;13.30;8.45;;;2.80;99.90;;;;;;5117434;28;20233;-71
2021/04/15 04:16:37;;;;;;;11.52;9.23;;;2.80;99.90;;;;;;5116812;28;20311;-71
2021/04/15 04:19:08;;;;;;;12.25;9.15;;;2.70;99.90;;;;;;5117471;28;20198;-71
2021/04/15 04:21:46;;;;;;;15.23;9.18;;;2.60;99.90;;;;;;5116961;28;20221;-71
2021/04/15 04:24:20;;;;;;;15.77;9.32;;;2.40;99.90;;;;;;5117234;28;20429;-71
2021/04/15 04:26:51;;;;;;;12.80;8.43;;;2.40;99.90;;;;;;5116982;28;20209;-71
2021/04/15 04:29:30;;;;;;;12.85;8.63;;;2.40;99.90;;;;;;5117354;28;20284;-71
2021/04/15 04:32:02;;;;;;;12.90;7.75;;;2.40;99.90;;;;;;5116612;28;20308;-71
2021/04/15 04:34:31;;;;;;;13.45;8.07;;;2.40;99.90;;;;;;5115512;28;20292;-72
2021/04/15 04:36:58;;;;;;;16.15;9.32;;;2.40;99.90;;;;;;5116417;28;20729;-71
2021/04/15 04:39:28;;;;;;;14.43;8.73;;;2.40;99.90;;;;;;5116978;28;20292;-72
2021/04/15 04:42:03;;;;;;;15.05;9.48;;;2.30;99.90;;;;;;5117260;28;20643;-71
2021/04/15 04:44:39;;;;;;;13.00;9.50;;;2.20;99.90;;;;;;5117121;27;20204;-72
2021/04/15 04:47:13;;;;;;;14.07;8.20;;;2.10;99.90;;;;;;5116622;27;20581;-71
2021/04/15 04:49:42;;;;;;;12.07;8.02;;;2.00;99.90;;;;;;5116832;28;20284;-71
2021/04/15 04:52:16;;;;;;;11.20;8.40;;;2.20;99.90;;;;;;5116955;28;20312;-71
2021/04/15 04:54:43;;;;;;;11.35;7.25;;;2.30;99.90;;;;;;5116629;28;20240;-72
2021/04/15 04:57:15;;;;;;;10.73;7.32;;;2.30;99.90;;;;;;5116134;28;20209;-72
2021/04/15 04:59:44;;;;;;;16.77;8.80;;;2.50;99.90;;;;;;5116377;28;20641;-72
2021/04/15 05:02:14;;;;;;;11.27;8.65;;;2.50;99.90;;;;;;5116672;28;20232;-72
2021/04/15 05:04:42;;;;;;;12.00;8.20;;;2.60;99.90;;;;;;5116604;28;20204;-71
2021/04/15 05:07:17;;;;;;;14.73;8.73;;;2.70;99.90;;;;;;5115779;28;20212;-71
2021/04/15 05:09:45;;;;;;;13.00;8.18;;;2.80;99.90;;;;;;5116824;28;20246;-71
2021/04/15 05:12:17;;;;;;;13.23;8.38;;;2.80;99.90;;;;;;5115870;28;20221;-71
2021/04/15 05:14:44;;;;;;;12.20;7.90;;;2.80;99.90;;;;;;5116271;28;20288;-72
2021/04/15 05:17:22;;;;;;;15.55;9.05;;;2.80;99.90;;;;;;5115889;28;20202;-71
2021/04/15 05:19:49;;;;;;;12.65;8.07;;;2.90;99.90;;;;;;5116504;28;20648;-72
2021/04/15 05:22:23;;;;;;;11.05;7.53;;;2.90;99.90;;;;;;5115962;28;20308;-71
2021/04/15 05:24:54;;;;;;;16.75;9.52;;;3.00;99.90;;;;;;5116284;28;20296;-72
2021/04/15 05:27:22;;;;;;;14.60;9.00;;;3.00;99.90;;;;;;5115978;28;20235;-71
2021/04/15 05:30:00;;;;;;;14.98;8.32;;;3.00;99.90;;;;;;5116141;28;20280;-72
2021/04/15 05:32:28;;;;;;;12.07;7.93;;;3.10;99.90;;;;;;5116440;28;20328;-72
2021/04/15 05:34:57;;;;;;;13.35;8.70;;;3.10;99.90;;;;;;5115650;28;20221;-72
2021/04/15 05:37:26;;;;;;;13.60;9.02;;;3.20;99.90;;;;;;5115685;28;20584;-72
2021/04/15 05:39:54;;;;;;;11.57;7.35;;;3.20;99.90;;;;;;5115698;28;20201;-72
2021/04/15 05:42:27;;;;;;;13.70;8.75;;;3.00;99.90;;;;;;5115787;28;20224;-72
2021/04/15 05:44:57;;;;;;;13.48;8.75;;;3.00;99.90;;;;;;5115594;28;20293;-71
2021/04/15 05:47:28;;;;;;;10.45;8.23;;;3.00;99.90;;;;;;5115418;28;20534;-72
2021/04/15 05:50:02;;;;;;;10.63;7.97;;;2.80;99.90;;;;;;5115489;28;20263;-72
2021/04/15 05:52:36;;;;;;;12.70;8.40;;;2.80;99.90;;;;;;5115606;28;20591;-72
2021/04/15 05:55:09;;;;;;;15.50;7.80;;;2.60;99.90;;;;;;5115278;28;20265;-72
2021/04/15 05:57:39;;;;;;;11.85;7.80;;;2.50;99.90;;;;;;5114956;28;20240;-72
2021/04/15 06:00:12;;;;;;;10.88;8.15;;;2.60;99.90;;;;;;5115238;28;20212;-72
2021/04/15 06:02:50;;;;;;;10.60;7.57;;;2.60;99.90;;;;;;5115178;28;20549;-72
2021/04/15 06:05:22;;;;;;;10.13;7.13;;;2.60;99.90;;;;;;5115474;28;20260;-71
2021/04/15 06:07:51;;;;;;;12.02;7.90;;;2.50;99.90;;;;;;5114716;28;20193;-72
2021/04/15 06:10:22;;;;;;;14.25;8.10;;;2.40;99.90;;;;;;5114695;28;20288;-71
2021/04/15 06:12:55;;;;;;;11.65;7.30;;;2.20;99.90;;;;;;5115332;28;20182;-71
2021/04/15 06:15:25;;;;;;;11.75;7.65;;;2.20;99.90;;;;;;5115039;28;20748;-72
2021/04/15 06:18:00;;;;;;;13.07;7.53;;;2.20;99.90;;;;;;5115282;28;20288;-72
2021/04/15 06:20:31;;;;;;;15.73;8.52;;;2.40;99.90;;;;;;5115201;28;20225;-71
2021/04/15 06:23:02;;;;;;;9.80;7.38;;;2.50;99.90;;;;;;5114912;28;20672;-72
2021/04/15 06:25:32;;;;;;;13.20;7.55;;;2.50;99.90;;;;;;5114673;28;20204;-72
2021/04/15 06:28:04;;;;;;;11.13;6.90;;;2.40;99.90;;;;;;5114839;28;20725;-72
2021/04/15 06:30:37;;;;;;;14.77;8.60;;;2.30;99.90;;;;;;5115053;28;20232;-72
2021/04/15 06:33:10;;;;;;;12.77;8.52;;;2.30;99.90;;;;;;5115406;28;20213;-72
2021/04/15 06:35:37;;;;;;;13.50;8.48;;;2.20;99.90;;;;;;5114119;28;20874;-71
2021/04/15 06:38:13;;;;;;;15.05;8.50;;;2.30;99.90;;;;;;5114755;28;20205;-72
2021/04/15 06:41:20;;;;;;;12.80;8.27;;;2.30;99.90;;;;;;5114529;28;20317;-72
2021/04/15 06:44:06;;;;;;;12.65;7.75;;;2.30;99.90;;;;;;5114349;28;20645;-72
2021/04/15 06:46:49;;;;;;;11.77;8.30;;;2.60;99.90;;;;;;5114638;28;20316;-72
2021/04/15 06:49:34;;;;;;;16.83;8.95;;;2.90;99.90;;;;;;5114687;28;20244;-71
2021/04/15 06:52:05;;;;;;;10.20;7.70;;;3.20;99.90;;;;;;5114316;28;20304;-72
2021/04/15 06:54:38;;;;;;;10.15;8.25;;;3.30;99.90;;;;;;5114095;28;20343;-72
2021/04/15 06:57:42;;;;;;;14.20;9.23;;;3.50;99.90;;;;;;5113859;28;20244;-71
2021/04/15 07:00:24;;;;;;;15.00;7.35;;;3.60;99.90;;;;;;5114974;28;20207;-72
2021/04/15 07:03:08;;;;;;;9.23;7.60;;;3.60;99.90;;;;;;5114710;28;20189;-72
2021/04/15 07:05:43;;;;;;;15.32;7.68;;;3.70;99.90;;;;;;5112907;28;20202;-72
2021/04/15 07:08:13;;;;;;;13.18;9.02;;;3.70;99.90;;;;;;5114580;28;20216;-72
2021/04/15 07:10:54;;;;;;;10.68;8.30;;;3.60;99.90;;;;;;5114057;28;20562;-72
2021/04/15 07:13:42;;;;;;;8.88;7.57;;;3.60;99.90;;;;;;5114285;28;20207;-72
2021/04/15 07:16:34;;;;;;;14.68;8.18;;;3.80;99.90;;;;;;5113817;28;20221;-72
2021/04/15 07:19:50;;;;;;;10.25;7.70;;;3.70;99.90;;;;;;5113805;28;20202;-72
2021/04/15 07:22:48;;;;;;;10.00;7.88;;;3.70;99.90;;;;;;5051313;28;20321;-71
2021/04/15 07:25:29;;;;;;;11.02;7.10;;;3.60;99.90;;;;;;5114103;28;20334;-72
2021/04/15 07:28:14;;;;;;;9.43;6.80;;;3.60;99.90;;;;;;5114177;28;20209;-72
2021/04/15 07:31:18;;;;;;;11.05;7.82;;;3.80;99.90;;;;;;5114155;28;20307;-72
2021/04/15 07:34:04;;;;;;;12.27;8.40;;;3.80;99.90;;;;;;5113666;28;20209;-72
2021/04/15 07:37:09;;;;;;;11.60;7.60;;;3.90;99.90;;;;;;5113653;28;20221;-72
2021/04/15 07:39:51;;;;;;;12.93;8.48;;;4.00;99.90;;;;;;5112661;28;20204;-72
2021/04/15 07:42:49;;;;;;;10.70;7.30;;;4.10;99.90;;;;;;5113642;28;20684;-72
2021/04/15 07:45:20;;;;;;;8.98;6.75;;;4.20;99.90;;;;;;5114110;28;20284;-72
2021/04/15 07:48:07;;;;;;;9.02;5.75;;;4.20;99.90;;;;;;5114156;28;20708;-72
2021/04/15 07:51:06;;;;;;;8.85;5.35;;;4.20;99.90;;;;;;5113639;28;20253;-72
2021/04/15 07:53:56;;;;;;;8.70;5.63;;;4.30;99.90;;;;;;5114289;28;20285;-70
2021/04/15 07:57:13;;;;;;;6.65;4.85;;;4.50;99.90;;;;;;5105560;28;20221;-72
2021/04/15 07:59:53;;;;;;;6.68;4.88;;;4.50;99.90;;;;;;5051211;28;20618;-75
2021/04/15 08:02:35;;;;;;;9.27;5.32;;;4.50;99.90;;;;;;5046279;28;20728;-73
2021/04/15 08:05:31;;;;;;;11.07;6.28;;;4.80;99.90;;;;;;5076231;28;20195;-73
2021/04/15 08:08:17;;;;;;;7.57;6.15;;;5.30;99.90;;;;;;5101864;28;20745;-73
2021/04/15 08:11:28;;;;;;;8.73;6.65;;;5.80;99.70;;;;;;5106747;28;20235;-74
2021/04/15 08:14:23;;;;;;;8.60;6.40;;;6.30;98.50;;;;;;5103279;28;20254;-72
2021/04/15 08:17:00;;;;;;;9.60;5.63;;;6.90;97.30;;;;;;5102476;28;20226;-72
2021/04/15 08:19:54;;;;;;;7.80;6.35;;;7.10;96.20;;;;;;5104453;28;20794;-72
2021/04/15 08:22:39;;;;;;;11.60;6.70;;;6.90;95.10;;;;;;5095838;28;20222;-72
2021/04/15 08:25:14;;;;;;;10.40;5.72;;;6.80;95.10;;;;;;5097126;28;20293;-72
2021/04/15 08:28:03;;;;;;;6.65;5.60;;;6.70;94.20;;;;;;5096497;28;20597;-73
2021/04/15 08:30:45;;;;;;;8.98;6.53;;;6.60;95.40;;;;;;5096639;28;20333;-72
2021/04/15 08:33:45;;;;;;;6.90;5.45;;;6.40;94.90;;;;;;5096815;28;20605;-72
2021/04/15 08:37:00;;;;;;;6.88;5.55;;;6.40;96.20;;;;;;5088444;28;20230;-72
2021/04/15 08:39:35;;;;;;;8.02;4.97;;;6.50;94.90;;;;;;5054368;28;20209;-72
2021/04/15 08:42:16;;;;;;;8.82;5.63;;;6.30;94.70;;;;;;5094139;28;20274;-72
2021/04/15 08:45:10;;;;;;;9.15;5.15;;;6.60;95.50;;;;;;5096504;28;20258;-72
2021/04/15 08:47:52;;;;;;;9.18;6.20;;;6.80;94.70;;;;;;5096160;28;20657;-72
2021/04/15 08:50:28;;;;;;;10.00;5.25;;;7.40;93.50;;;;;;5096369;28;20666;-73
2021/04/15 08:53:01;;;;;;;8.70;6.65;;;8.00;92.10;;;;;;5096384;28;20737;-72
2021/04/15 08:55:35;;;;;;;8.18;5.78;;;8.50;91.70;;;;;;5095729;28;20317;-72
2021/04/15 08:58:27;;;;;;;9.40;5.65;;;8.90;89.30;;;;;;5096197;28;20194;-73
2021/04/15 09:00:59;;;;;;;10.02;5.90;;;9.70;85.80;;;;;;5096504;28;20439;-73
2021/04/15 09:03:33;;;;;;;6.18;4.65;;;9.90;79.70;;;;;;5096057;28;20238;-73
2021/04/15 09:06:18;;;;;;;8.30;5.05;;;10.60;75.40;;;;;;5096026;28;20269;-73
2021/04/15 09:09:00;;;;;;;8.90;5.35;;;11.00;71.30;;;;;;5095961;28;20206;-73
2021/04/15 09:11:35;;;;;;;6.22;4.75;;;11.10;65.90;;;;;;5095687;28;20233;-73
2021/04/15 09:14:14;;;;;;;6.15;5.20;;;11.30;66.20;;;;;;5095780;28;20197;-73
2021/04/15 09:16:47;;;;;;;7.45;4.93;;;12.30;65.40;;;;;;5095596;28;20222;-73
2021/04/15 09:19:30;;;;;;;6.30;5.20;;;13.80;63.00;;;;;;5096064;28;20205;-73
2021/04/15 09:22:08;;;;;;;7.93;5.57;;;12.80;58.00;;;;;;5095016;28;20719;-72
2021/04/15 09:24:42;;;;;;;9.82;6.18;;;11.60;59.60;;;;;;5095392;28;20868;-72
2021/04/15 09:27:23;;;;;;;7.88;5.38;;;11.90;62.60;;;;;;5095443;28;20178;-73
2021/04/15 09:29:59;;;;;;;6.15;4.85;;;11.60;59.20;;;;;;5095841;28;20202;-73
2021/04/15 09:32:41;;;;;;;5.13;4.50;;;10.60;61.10;;;;;;5095407;28;20584;-73
2021/04/15 09:35:24;;;;;;;4.97;4.30;;;10.60;62.70;;;;;;5095517;28;20220;-73
2021/04/15 09:38:26;;;;;;;5.60;4.13;;;12.00;60.10;;;;;;5095431;28;20186;-73
2021/04/15 09:41:32;;;;;;;4.75;4.22;;;13.00;57.40;;;;;;5095438;28;20244;-73
2021/04/15 09:44:09;;;;;;;4.57;4.03;;;15.60;54.50;;;;;;5096144;28;20212;-73
2021/04/15 09:46:48;;;;;;;5.30;4.18;;;18.00;48.20;;;;;;5094967;28;20201;-74
2021/04/15 09:49:23;;;;;;;4.60;3.88;;;19.10;43.40;;;;;;5095168;28;20280;-74
2021/04/15 09:52:11;;;;;;;4.18;3.40;;;18.50;41.40;;;;;;5094732;28;20221;-73
2021/04/15 09:54:50;;;;;;;4.35;3.35;;;18.20;40.50;;;;;;5071581;28;20222;-74
2021/04/15 09:57:32;;;;;;;3.50;3.20;;;19.00;40.60;;;;;;5094695;28;20226;-73
2021/04/15 10:00:14;;;;;;;5.55;3.65;;;18.90;38.90;;;;;;5095043;28;20217;-73
2021/04/15 10:02:53;;;;;;;5.72;3.88;;;15.30;40.80;;;;;;5095754;28;20196;-73
2021/04/15 10:05:44;;;;;;;5.00;4.50;;;14.40;46.00;;;;;;5095290;28;20243;-74
2021/04/15 10:08:23;;;;;;;6.10;4.20;;;14.80;47.10;;;;;;5094926;28;20215;-73
2021/04/15 10:10:57;;;;;;;4.82;3.33;;;16.50;45.80;;;;;;5094713;28;20226;-74
2021/04/15 10:13:34;;;;;;;3.88;3.42;;;17.60;40.90;;;;;;5094364;28;20276;-73
2021/04/15 10:16:07;;;;;;;3.30;3.00;;;15.10;42.10;;;;;;5094176;28;20209;-73
2021/04/15 10:19:02;;;;;;;4.10;3.05;;;15.90;43.70;;;;;;5094637;28;20213;-73
2021/04/15 10:21:48;;;;;;;4.57;3.40;;;17.70;41.40;;;;;;5094164;28;20225;-72
2021/04/15 10:24:27;;;;;;;4.35;3.45;;;15.30;45.20;;;;;;5095340;28;20187;-73
2021/04/15 10:27:34;;;;;;;4.80;3.58;;;15.50;47.70;;;;;;5094183;28;20185;-74
2021/04/15 10:30:32;;;;;;;4.07;3.65;;;14.40;46.70;;;;;;5094822;28;20214;-73
2021/04/15 10:33:31;;;;;;;6.70;3.70;;;12.40;48.70;;;;;;5090647;28;20260;-73
2021/04/15 10:36:34;;;;;;;5.03;3.63;;;10.70;54.20;;;;;;5094241;28;20268;-72
2021/04/15 10:39:46;;;;;;;6.35;4.43;;;10.40;56.00;;;;;;5094314;28;20239;-72
2021/04/15 10:42:41;;;;;;;7.68;4.28;;;9.10;60.10;;;;;;5094386;28;20308;-73
2021/04/15 10:45:56;;;;;;;5.43;4.20;;;9.20;61.80;;;;;;5094692;28;20293;-73
2021/04/15 10:48:36;;;;;;;5.45;3.85;;;10.50;58.80;;;;;;5093968;28;20198;-73
2021/04/15 10:51:07;;;;;;;6.00;4.47;;;11.70;56.50;;;;;;5094058;28;20244;-73
2021/04/15 10:53:45;;;;;;;5.32;3.88;;;11.40;53.10;;;;;;5094113;28;20535;-72
2021/04/15 10:56:29;;;;;;;7.68;3.95;;;10.30;53.90;;;;;;5093464;28;20739;-72
2021/04/15 10:59:07;;;;;;;4.88;3.70;;;9.80;55.90;;;;;;5094121;28;20657;-73
2021/04/15 11:01:35;;;;;;;5.80;4.57;;;9.50;57.40;;;;;;5093862;28;20308;-72
2021/04/15 11:04:22;;;;;;;4.82;3.70;;;9.60;58.20;;;;;;5093904;28;20225;-73
2021/04/15 11:06:52;;;;;;;4.28;3.72;;;9.50;57.50;;;;;;5093778;28;20197;-73
2021/04/15 11:09:22;;;;;;;3.70;3.33;;;9.40;58.30;;;;;;5094117;28;20211;-73
2021/04/15 11:11:55;;;;;;;4.60;3.70;;;9.80;59.20;;;;;;5093714;28;20322;-73
2021/04/15 11:14:24;;;;;;;4.85;3.33;;;10.00;55.20;;;;;;5093778;28;20644;-73
2021/04/15 11:16:54;;;;;;;3.80;3.10;;;10.00;56.40;;;;;;5093542;28;20224;-73
2021/04/15 11:19:25;;;;;;;4.13;3.60;;;10.10;56.10;;;;;;5093928;28;20211;-73
2021/04/15 11:21:52;;;;;;;4.07;3.10;;;10.50;57.00;;;;;;5093376;28;20752;-73
2021/04/15 11:24:30;;;;;;;3.60;2.70;;;11.60;56.60;;;;;;5093675;28;20206;-73
2021/04/15 11:26:58;;;;;;;5.60;3.13;;;12.90;55.00;;;;;;5093232;28;20183;-73
2021/04/15 11:29:28;;;;;;;5.60;3.20;;;14.00;52.20;;;;;;5093722;28;20204;-73
2021/04/15 11:31:56;;;;;;;3.10;2.67;;;14.70;49.30;;;;;;5093803;28;20223;-73
2021/04/15 11:34:24;;;;;;;2.92;2.65;;;14.60;50.00;;;;;;5093835;28;20205;-73
2021/04/15 11:37:04;;;;;;;4.20;2.90;;;14.50;49.50;;;;;;5093084;28;20218;-73
2021/04/15 11:39:33;;;;;;;6.65;2.42;;;14.10;49.20;;;;;;5093591;28;20549;-73
2021/04/15 11:42:02;;;;;;;3.60;3.25;;;13.30;48.40;;;;;;5093411;28;20226;-73
2021/04/15 11:44:40;;;;;;;5.15;3.10;;;11.90;49.40;;;;;;5096696;28;20569;-73
2021/04/15 11:47:13;;;;;;;3.92;3.13;;;10.80;51.90;;;;;;5097121;28;20280;-72
2021/04/15 11:49:41;;;;;;;4.97;3.08;;;10.80;53.30;;;;;;5097901;28;20214;-73
2021/04/15 11:52:29;;;;;;;3.75;3.42;;;10.80;53.70;;;;;;5097494;28;20218;-72
2021/04/15 11:55:24;;;;;;;4.03;2.92;;;10.80;54.50;;;;;;5097293;28;20214;-73
2021/04/15 11:57:56;;;;;;;5.00;3.17;;;11.00;53.90;;;;;;5096193;28;20244;-72
2021/04/15 12:00:29;;;;;;;3.95;2.95;;;10.40;51.80;;;;;;5097144;28;20289;-73
2021/04/15 12:03:09;;;;;;;5.05;3.05;;;10.30;53.10;;;;;;5097530;28;20507;-73
2021/04/15 12:05:38;;;;;;;4.28;2.45;;;10.60;52.20;;;;;;5097082;28;20189;-73
2021/04/15 12:08:12;;;;;;;5.60;3.10;;;10.70;53.50;;;;;;5097078;28;20298;-73
2021/04/15 12:10:43;;;;;;;2.88;2.65;;;10.70;51.80;;;;;;5097042;28;20221;-73
2021/04/15 12:13:16;;;;;;;6.05;2.25;;;10.90;51.80;;;;;;5096893;28;20202;-72
2021/04/15 12:15:50;;;;;;;3.13;2.55;;;10.70;50.00;;;;;;5096965;28;20700;-73
2021/04/15 12:18:24;;;;;;;4.68;3.53;;;10.50;51.20;;;;;;5096795;28;20192;-72
2021/04/15 12:21:03;;;;;;;4.20;2.97;;;10.90;54.40;;;;;;5096739;28;20228;-72
2021/04/15 12:23:40;;;;;;;3.20;2.90;;;11.10;53.70;;;;;;5096832;28;20196;-73
2021/04/15 12:26:15;;;;;;;3.45;3.08;;;11.50;53.30;;;;;;5096534;28;20289;-73
2021/04/15 12:28:46;;;;;;;3.50;3.10;;;11.80;51.10;;;;;;5096875;28;20698;-73
2021/04/15 12:31:21;;;;;;;2.95;2.58;;;11.90;50.50;;;;;;5096361;28;20716;-73
2021/04/15 12:34:04;;;;;;;3.28;2.53;;;12.00;49.70;;;;;;5096229;28;20190;-72
2021/04/15 12:36:35;;;;;;;3.65;3.03;;;12.10;49.70;;;;;;5096200;28;20315;-73
2021/04/15 12:39:06;;;;;;;3.95;2.85;;;12.30;49.10;;;;;;5096825;28;20292;-73
2021/04/15 12:41:34;;;;;;;5.90;3.40;;;12.10;48.20;;;;;;5096082;28;20232;-73
2021/04/15 12:44:08;;;;;;;6.22;3.50;;;12.20;47.20;;;;;;5096436;28;20395;-72
2021/04/15 12:46:35;;;;;;;6.00;3.08;;;12.20;47.10;;;;;;5096430;28;20315;-73
2021/04/15 12:49:04;;;;;;;4.13;2.80;;;12.20;48.10;;;;;;5096432;28;20204;-73
2021/04/15 12:51:34;;;;;;;3.85;3.28;;;12.30;50.30;;;;;;5096208;28;20589;-72
2021/04/15 12:54:06;;;;;;;3.55;2.97;;;12.50;49.10;;;;;;5096776;28;20602;-72
2021/04/15 12:56:38;;;;;;;5.55;3.20;;;12.70;48.60;;;;;;5094648;28;20218;-72
2021/04/15 12:59:05;;;;;;;3.00;2.80;;;12.90;48.70;;;;;;5096074;28;20237;-72
2021/04/15 13:01:33;;;;;;;3.13;2.80;;;12.90;47.50;;;;;;5095958;28;20305;-73
2021/04/15 13:04:19;;;;;;;3.88;2.80;;;12.60;46.90;;;;;;5096217;28;20293;-72
2021/04/15 13:07:05;;;;;;;5.80;3.00;;;12.60;47.50;;;;;;5095841;28;20269;-72
2021/04/15 13:09:34;;;;;;;3.20;2.90;;;12.70;47.50;;;;;;5095548;28;20234;-73
2021/04/15 13:12:21;;;;;;;3.50;3.20;;;12.60;47.60;;;;;;5095934;28;20686;-73
2021/04/15 13:14:50;;;;;;;4.63;2.72;;;12.70;48.10;;;;;;5095807;28;20230;-73
2021/04/15 13:17:46;;;;;;;3.13;2.83;;;12.30;47.20;;;;;;5095251;28;20312;-72
2021/04/15 13:20:36;;;;;;;3.15;2.80;;;11.30;52.50;;;;;;5095627;28;20245;-72
2021/04/15 13:23:34;;;;;;;3.40;2.90;;;10.40;54.20;;;;;;5096345;28;20191;-72
2021/04/15 13:26:43;;;;;;;3.75;3.20;;;9.70;57.50;;;;;;5095529;28;20527;-72
2021/04/15 13:29:24;;;;;;;2.78;2.53;;;10.00;57.10;;;;;;5085174;28;20202;-72
2021/04/15 13:32:18;;;;;;;2.85;2.60;;;10.10;56.20;;;;;;5095551;28;20221;-72
2021/04/15 13:35:16;;;;;;;3.15;2.85;;;10.20;55.30;;;;;;5095458;28;20297;-72
2021/04/15 13:37:46;;;;;;;3.47;3.00;;;10.00;55.80;;;;;;5094960;28;20741;-72